Time;durP1;ratioP1;P1;durP2;ratioP2;P2;SDS_P1;SDS_P2;PMS_P1;PMS_P2;Temp;Humidity;BMP_temperature;BMP_pressure;BME280_temperature;BME280_humidity;BME280_pressure;Samples;Min_cycle;Max_cycle;Signal;HPM_P1;HPM_P2
2023/08/28 00:00:07;;;;;;;;;19.60;18.40;;;;;26.56;34.96;98457.06;5088779;28;8964;-79
2023/08/28 00:02:58;;;;;;;;;17.00;16.60;;;;;26.51;35.01;98451.31;5088896;28;9650;-79
2023/08/28 00:05:31;;;;;;;;;19.80;19.00;;;;;26.47;35.31;98453.47;5036650;28;8830;-77
2023/08/28 00:08:00;;;;;;;;;13.20;13.20;;;;;26.40;35.26;98445.19;5088803;28;9599;-76
2023/08/28 00:10:29;;;;;;;;;17.25;17.00;;;;;26.40;35.18;98441.63;5089984;28;8984;-77
2023/08/28 00:12:58;;;;;;;;;17.75;17.50;;;;;26.40;35.25;98444.31;5075121;28;8854;-79
2023/08/28 00:15:27;;;;;;;;;19.50;19.00;;;;;26.34;35.13;98439.56;5101677;28;8907;-77
2023/08/28 00:17:56;;;;;;;;;20.00;17.20;;;;;26.32;35.60;98438.88;5107044;28;8896;-77
2023/08/28 00:20:25;;;;;;;;;16.00;16.00;;;;;26.27;35.09;98431.31;5099676;28;8932;-76
2023/08/28 00:22:55;;;;;;;;;17.25;16.00;;;;;26.26;35.36;98433.13;5058274;28;8892;-77
2023/08/28 00:25:24;;;;;;;;;15.25;15.25;;;;;26.26;35.60;98425.06;5092772;28;8872;-78
2023/08/28 00:27:53;;;;;;;;;18.60;18.60;;;;;26.29;35.55;98430.13;5074505;28;8834;-76
2023/08/28 00:30:21;;;;;;;;;18.20;16.60;;;;;26.31;35.45;98423.75;5068868;28;8972;-77
2023/08/28 00:32:50;;;;;;;;;19.40;19.40;;;;;26.32;34.92;98426.25;5069217;28;8974;-75
2023/08/28 00:35:19;;;;;;;;;18.20;17.60;;;;;26.34;35.36;98421.56;5052903;28;8899;-80
2023/08/28 00:37:48;;;;;;;;;17.00;17.00;;;;;26.38;35.24;98414.00;5070693;28;8840;-79
2023/08/28 00:40:18;;;;;;;;;16.60;15.00;;;;;26.32;35.47;98411.94;5073452;28;8856;-78
2023/08/28 00:42:47;;;;;;;;;16.20;15.40;;;;;26.26;35.35;98408.88;5072540;28;8852;-78
2023/08/28 00:45:16;;;;;;;;;18.20;18.20;;;;;26.33;35.08;98409.09;5072527;28;8948;-76
2023/08/28 00:47:46;;;;;;;;;16.80;15.00;;;;;26.23;35.57;98408.34;5089371;28;8934;-78
2023/08/28 00:50:15;;;;;;;;;16.60;16.60;;;;;26.29;34.96;98407.75;5089208;28;8871;-79
2023/08/28 00:52:44;;;;;;;;;16.40;16.40;;;;;26.29;35.21;98405.03;5089292;28;8872;-78
2023/08/28 00:55:13;;;;;;;;;16.80;14.00;;;;;26.31;35.20;98408.41;5022021;28;8942;-78
2023/08/28 00:57:43;;;;;;;;;18.20;17.60;;;;;26.28;35.05;98400.66;5072456;28;8853;-77
2023/08/28 01:00:13;;;;;;;;;17.00;15.80;;;;;26.32;35.32;98402.00;5055735;28;8846;-78
2023/08/28 01:02:42;;;;;;;;;16.20;16.20;;;;;26.32;34.99;98404.69;5092570;28;8880;-78
2023/08/28 01:05:12;;;;;;;;;17.40;17.20;;;;;26.26;35.35;98403.50;5091773;28;8862;-79
2023/08/28 01:07:54;;;;;;;;;20.00;16.80;;;;;26.24;35.11;98404.69;5078123;28;8993;-76
2023/08/28 01:10:29;;;;;;;;;16.80;16.80;;;;;26.24;35.31;98405.50;5074337;28;9009;-77
2023/08/28 01:13:12;;;;;;;;;17.20;16.40;;;;;26.26;35.49;98408.88;5066606;28;8836;-76
2023/08/28 01:15:41;;;;;;;;;14.40;14.40;;;;;26.15;35.17;98394.88;5108007;28;8886;-76
2023/08/28 01:18:10;;;;;;;;;18.20;15.60;;;;;26.08;35.55;98392.81;5095465;28;8832;-79
2023/08/28 01:20:41;;;;;;;;;14.00;14.00;;;;;26.11;35.04;98394.34;5060045;28;8828;-80
2023/08/28 01:23:24;;;;;;;;;14.40;14.20;;;;;26.14;35.51;98395.88;5092841;28;8912;-77
2023/08/28 01:25:54;;;;;;;;;17.60;17.20;;;;;26.11;35.32;98397.03;5093636;28;8912;-78
2023/08/28 01:28:25;;;;;;;;;17.60;16.80;;;;;26.17;35.16;98395.53;5093898;28;8832;-78
2023/08/28 01:30:54;;;;;;;;;18.20;16.80;;;;;26.12;35.07;98400.59;5093405;28;8828;-76
2023/08/28 01:33:23;;;;;;;;;18.20;17.40;;;;;26.06;35.52;98405.59;5093707;28;8839;-77
2023/08/28 01:36:00;;;;;;;;;18.80;17.00;;;;;26.15;35.42;98400.25;5042642;28;9624;-77
2023/08/28 01:38:34;;;;;;;;;15.20;15.20;;;;;26.16;35.26;98391.19;5093616;28;8974;-79
2023/08/28 01:41:11;;;;;;;;;15.00;13.80;;;;;26.18;35.04;98395.38;5093328;28;8847;-78
2023/08/28 01:43:48;;;;;;;;;14.00;14.00;;;;;26.12;34.87;98389.81;5093448;28;8836;-79
2023/08/28 01:46:18;;;;;;;;;15.00;15.00;;;;;26.05;35.24;98389.59;5093015;28;8835;-78
2023/08/28 01:48:52;;;;;;;;;18.00;16.80;;;;;26.11;35.16;98388.94;5111310;28;8828;-79
2023/08/28 01:51:22;;;;;;;;;19.40;18.60;;;;;26.01;35.46;98382.84;5093360;28;8893;-78
2023/08/28 01:53:53;;;;;;;;;15.80;15.80;;;;;26.07;35.10;98379.50;5076129;28;8986;-76
2023/08/28 01:56:24;;;;;;;;;16.40;16.40;;;;;25.99;35.35;98374.94;5092610;28;8851;-77
2023/08/28 01:58:55;;;;;;;;;15.80;15.60;;;;;25.99;35.07;98383.00;5092885;28;9585;-79
2023/08/28 02:01:25;;;;;;;;;17.20;16.40;;;;;25.98;35.35;98378.59;5092710;28;8946;-77
2023/08/28 02:03:55;;;;;;;;;15.60;15.40;;;;;25.94;35.31;98384.47;5092741;28;8828;-77
2023/08/28 02:06:24;;;;;;;;;17.00;15.80;;;;;25.94;35.05;98377.25;5092785;28;8840;-79
2023/08/28 02:08:53;;;;;;;;;16.60;15.20;;;;;25.95;35.30;98381.63;5042872;28;8950;-77
2023/08/28 02:11:23;;;;;;;;;15.80;15.00;;;;;25.96;35.05;98372.53;5055189;28;8878;-77
2023/08/28 02:13:53;;;;;;;;;16.80;16.60;;;;;25.99;34.99;98376.78;5125711;28;8847;-77
2023/08/28 02:16:21;;;;;;;;;15.40;14.40;;;;;26.00;34.52;98381.16;5060003;28;8867;-77
2023/08/28 02:18:50;;;;;;;;;15.20;15.20;;;;;26.04;34.42;98394.16;5110797;28;9648;-78
2023/08/28 02:21:20;;;;;;;;;13.60;12.40;;;;;26.15;33.88;98384.94;5092351;28;8840;-77
2023/08/28 02:23:50;;;;;;;;;13.40;11.80;;;;;26.13;34.26;98391.50;5092309;28;8851;-79
2023/08/28 02:26:18;;;;;;;;;17.00;15.80;;;;;26.02;34.35;98389.91;5092315;28;8856;-77
2023/08/28 02:28:48;;;;;;;;;16.80;14.80;;;;;26.09;33.79;98394.50;5092670;28;8851;-78
2023/08/28 02:31:18;;;;;;;;;17.20;15.80;;;;;26.11;33.99;98399.72;5110583;28;8878;-77
2023/08/28 02:33:47;;;;;;;;;17.20;15.80;;;;;26.03;33.64;98410.47;5057823;28;8907;-79
2023/08/28 02:36:17;;;;;;;;;14.00;14.00;;;;;26.04;33.89;98399.53;5092340;28;8843;-78
2023/08/28 02:38:46;;;;;;;;;14.40;14.00;;;;;26.12;33.75;98406.81;5088335;28;8954;-78
2023/08/28 02:41:14;;;;;;;;;13.40;13.40;;;;;26.15;33.86;98400.25;5022032;28;8969;-76
2023/08/28 02:43:44;;;;;;;;;12.60;12.60;;;;;26.13;33.68;98400.41;5038411;28;8842;-77
2023/08/28 02:46:14;;;;;;;;;15.40;14.00;;;;;26.19;33.64;98398.91;5054208;28;9583;-77
2023/08/28 02:48:43;;;;;;;;;12.80;12.80;;;;;26.16;33.36;98397.41;5089589;28;8846;-78
2023/08/28 02:51:12;;;;;;;;;16.20;13.80;;;;;26.12;33.64;98396.03;5071865;28;8849;-77
2023/08/28 02:53:41;;;;;;;;;15.80;15.80;;;;;26.16;33.57;98399.25;5089761;28;8862;-76
2023/08/28 02:56:12;;;;;;;;;15.60;14.60;;;;;26.10;33.41;98406.13;5071348;28;8842;-77
2023/08/28 02:58:41;;;;;;;;;16.40;16.40;;;;;26.05;33.65;98403.06;5037799;28;8857;-77
2023/08/28 03:01:10;;;;;;;;;16.20;15.00;;;;;26.00;33.69;98398.16;5071648;28;8885;-76
2023/08/28 03:03:40;;;;;;;;;15.20;14.20;;;;;25.95;33.38;98400.50;5089721;28;8841;-77
2023/08/28 03:06:09;;;;;;;;;14.40;13.40;;;;;25.98;33.60;98396.63;5071751;28;8850;-79
2023/08/28 03:08:38;;;;;;;;;15.00;14.40;;;;;25.97;33.14;98393.09;5082493;28;8849;-76
2023/08/28 03:11:07;;;;;;;;;14.60;14.60;;;;;25.92;33.26;98390.03;5087897;28;8853;-76
2023/08/28 03:13:36;;;;;;;;;16.60;15.60;;;;;25.81;33.48;98395.63;5073209;28;8857;-80
2023/08/28 03:16:05;;;;;;;;;14.40;13.60;;;;;25.81;33.48;98379.50;5091818;28;8844;-79
2023/08/28 03:18:33;;;;;;;;;14.20;12.60;;;;;25.73;33.85;98379.44;5057685;28;8839;-79
2023/08/28 03:21:05;;;;;;;;;14.20;13.80;;;;;25.71;33.63;98374.22;5091267;28;8867;-80
2023/08/28 03:23:34;;;;;;;;;12.80;12.80;;;;;25.61;33.63;98376.19;5091137;28;8836;-77
2023/08/28 03:26:03;;;;;;;;;15.60;13.40;;;;;25.51;33.56;98376.25;5093773;28;8850;-76
2023/08/28 03:28:32;;;;;;;;;9.60;9.60;;;;;25.58;33.72;98371.94;5111344;28;8854;-77
2023/08/28 03:31:02;;;;;;;;;14.20;14.00;;;;;25.57;33.49;98375.66;5091278;28;9011;-78
2023/08/28 03:33:31;;;;;;;;;12.00;12.00;;;;;25.56;33.37;98370.41;5090943;28;8851;-78
2023/08/28 03:36:01;;;;;;;;;13.00;12.00;;;;;25.51;33.31;98368.19;5091766;28;8839;-80
2023/08/28 03:38:32;;;;;;;;;13.60;11.60;;;;;25.50;33.57;98378.09;5056942;28;8859;-78
2023/08/28 03:41:00;;;;;;;;;13.40;11.00;;;;;25.51;33.89;98368.19;5040938;28;8863;-79
2023/08/28 03:43:29;;;;;;;;;13.60;12.40;;;;;25.46;33.76;98365.97;5091089;28;8867;-78
2023/08/28 03:45:58;;;;;;;;;11.40;10.80;;;;;25.50;33.54;98366.50;5108895;28;9601;-76
2023/08/28 03:48:27;;;;;;;;;12.80;12.40;;;;;25.48;33.85;98371.22;5108857;28;8854;-76
2023/08/28 03:50:55;;;;;;;;;12.40;12.00;;;;;25.40;33.76;98366.59;5084331;28;8860;-78
2023/08/28 03:53:24;;;;;;;;;13.80;12.00;;;;;25.42;34.04;98361.06;5070898;28;8947;-81
2023/08/28 03:55:55;;;;;;;;;10.00;10.00;;;;;25.37;33.98;98369.59;5070740;28;8830;-78
2023/08/28 03:58:23;;;;;;;;;13.00;13.00;;;;;25.41;33.65;98365.59;5037297;28;8938;-78
2023/08/28 04:00:53;;;;;;;;;12.80;11.60;;;;;25.40;33.73;98360.38;5087282;28;8845;-78
2023/08/28 04:03:23;;;;;;;;;11.20;11.20;;;;;25.41;34.18;98356.69;5053799;28;8850;-78
2023/08/28 04:05:52;;;;;;;;;13.00;12.40;;;;;25.35;34.32;98360.00;5097100;28;8837;-77
2023/08/28 04:08:22;;;;;;;;;13.00;12.00;;;;;25.34;33.99;98355.63;5090559;28;8852;-77
2023/08/28 04:10:52;;;;;;;;;10.00;10.00;;;;;25.23;34.47;98356.69;5097184;28;8874;-76
2023/08/28 04:13:23;;;;;;;;;14.60;12.60;;;;;25.34;33.95;98358.31;5093405;28;8851;-77
2023/08/28 04:15:51;;;;;;;;;15.60;15.40;;;;;25.27;34.36;98366.13;5075113;28;8936;-77
2023/08/28 04:18:20;;;;;;;;;13.60;13.60;;;;;25.25;33.77;98371.66;5090469;28;8851;-76
2023/08/28 04:20:49;;;;;;;;;12.60;11.60;;;;;25.20;34.32;98376.66;5093054;28;8865;-78
2023/08/28 04:23:18;;;;;;;;;16.20;14.60;;;;;25.19;34.22;98374.97;5088615;28;8857;-79
2023/08/28 04:25:47;;;;;;;;;12.60;11.60;;;;;25.25;34.13;98376.22;5070191;28;8996;-77
2023/08/28 04:28:18;;;;;;;;;14.40;13.60;;;;;25.26;34.00;98389.47;5070051;28;8972;-76
2023/08/28 04:30:48;;;;;;;;;14.60;12.80;;;;;25.33;33.62;98381.69;5088510;28;8853;-78
2023/08/28 04:33:17;;;;;;;;;12.40;11.40;;;;;25.34;33.46;98386.06;5070630;28;8876;-78
2023/08/28 04:35:46;;;;;;;;;11.40;11.40;;;;;25.32;33.07;98390.72;5038341;28;9005;-77
2023/08/28 04:38:16;;;;;;;;;13.20;12.20;;;;;25.36;33.21;98392.13;5053604;28;8846;-78
2023/08/28 04:40:44;;;;;;;;;12.80;12.80;;;;;25.38;33.16;98395.50;5070359;28;9655;-76
2023/08/28 04:43:13;;;;;;;;;12.60;12.20;;;;;25.47;32.52;98397.28;5070345;28;8853;-76
2023/08/28 04:45:42;;;;;;;;;11.60;11.60;;;;;25.56;32.78;98395.47;5088463;28;8841;-76
2023/08/28 04:48:12;;;;;;;;;8.20;8.20;;;;;25.51;32.54;98393.25;5088470;28;8870;-77
2023/08/28 04:50:43;;;;;;;;;16.00;16.00;;;;;25.52;32.68;98388.72;5088406;28;8980;-78
2023/08/28 04:53:12;;;;;;;;;19.00;16.80;;;;;25.57;32.75;98396.31;5036370;28;8896;-78
2023/08/28 04:55:40;;;;;;;;;12.60;11.00;;;;;25.55;32.73;98390.25;5088642;28;8822;-77
2023/08/28 04:58:09;;;;;;;;;12.80;11.00;;;;;25.61;32.19;98401.25;5073449;28;8927;-75
2023/08/28 05:00:38;;;;;;;;;10.20;10.20;;;;;25.65;32.55;98397.22;5092201;28;8907;-79
2023/08/28 05:03:07;;;;;;;;;12.40;12.40;;;;;25.64;32.10;98387.47;5083575;28;8902;-75
2023/08/28 05:05:38;;;;;;;;;11.60;9.80;;;;;25.75;31.78;98382.81;5086384;28;8873;-75
2023/08/28 05:08:08;;;;;;;;;17.60;17.60;;;;;25.78;32.29;98380.66;5093272;28;8834;-77
2023/08/28 05:10:36;;;;;;;;;13.00;12.60;;;;;25.73;31.87;98376.75;5074296;28;8861;-77
2023/08/28 05:13:06;;;;;;;;;10.00;10.00;;;;;25.80;32.12;98383.19;5090377;28;8838;-78
2023/08/28 05:15:35;;;;;;;;;8.40;8.40;;;;;25.86;32.00;98391.47;5056585;28;8850;-80
2023/08/28 05:18:05;;;;;;;;;14.80;14.20;;;;;25.99;31.68;98374.94;5072778;28;9560;-78
2023/08/28 05:20:34;;;;;;;;;16.20;15.20;;;;;25.95;31.57;98372.72;5089699;28;9536;-76
2023/08/28 05:23:06;;;;;;;;;14.60;14.00;;;;;26.04;32.09;98372.59;5056033;28;8861;-77
2023/08/28 05:25:55;;;;;;;;;10.60;10.60;;;;;26.16;31.52;98381.25;5068472;28;8886;-78
2023/08/28 05:28:24;;;;;;;;;11.80;11.80;;;;;26.24;31.99;98375.88;5068426;28;8839;-80
2023/08/28 05:30:53;;;;;;;;;11.00;10.40;;;;;26.24;31.85;98375.03;5051334;28;8856;-78
2023/08/28 05:33:22;;;;;;;;;14.40;11.60;;;;;26.28;31.91;98377.25;5075044;28;8868;-78
2023/08/28 05:35:51;;;;;;;;;11.00;10.80;;;;;26.29;32.00;98370.03;5088166;28;8889;-77
2023/08/28 05:38:22;;;;;;;;;9.40;7.20;;;;;26.34;31.68;98372.22;5088236;28;9022;-76
2023/08/28 05:40:50;;;;;;;;;11.60;11.60;;;;;26.32;31.93;98366.16;5071158;28;8857;-80
2023/08/28 05:43:19;;;;;;;;;11.00;11.00;;;;;26.36;31.93;98367.50;5054553;28;9609;-78
2023/08/28 05:45:48;;;;;;;;;11.20;10.20;;;;;26.41;31.35;98379.50;5071278;28;8837;-77
2023/08/28 05:48:18;;;;;;;;;11.00;11.00;;;;;26.60;31.41;98375.72;5071253;28;8875;-76
2023/08/28 05:50:50;;;;;;;;;10.00;10.00;;;;;26.72;31.25;98370.00;5071689;28;9113;-77
2023/08/28 05:53:19;;;;;;;;;10.80;10.40;;;;;26.75;30.93;98373.22;5038480;28;8853;-78
2023/08/28 05:55:49;;;;;;;;;13.00;12.20;;;;;26.85;30.73;98376.63;5088349;28;8907;-77
2023/08/28 05:58:19;;;;;;;;;11.20;11.20;;;;;26.90;30.57;98384.22;5071687;28;8921;-76
2023/08/28 06:00:48;;;;;;;;;10.40;10.00;;;;;26.93;30.82;98377.63;5082736;28;8951;-79
2023/08/28 06:03:17;;;;;;;;;12.80;10.60;;;;;26.97;30.95;98377.16;5093264;28;8827;-79
2023/08/28 06:05:47;;;;;;;;;11.40;11.40;;;;;27.06;30.66;98378.03;5100060;28;8865;-79
2023/08/28 06:08:16;;;;;;;;;11.20;11.20;;;;;27.08;30.75;98381.41;5090378;28;8927;-77
2023/08/28 06:10:45;;;;;;;;;9.80;9.80;;;;;27.21;30.48;98386.28;5072625;28;8842;-79
2023/08/28 06:13:16;;;;;;;;;12.20;11.20;;;;;27.21;30.67;98381.75;5087383;28;8837;-76
2023/08/28 06:16:05;;;;;;;;;13.20;12.20;;;;;27.28;30.12;98379.22;5047252;28;8862;-79
2023/08/28 06:18:35;;;;;;;;;10.40;10.00;;;;;27.43;30.39;98377.53;4998930;28;8842;-77
2023/08/28 06:21:04;;;;;;;;;10.80;10.80;;;;;27.49;30.26;98378.72;5047457;28;8874;-76
2023/08/28 06:23:33;;;;;;;;;11.80;11.00;;;;;27.59;30.03;98373.16;5047389;28;8905;-80
2023/08/28 06:26:03;;;;;;;;;12.00;10.60;;;;;27.54;30.32;98370.94;5054842;28;8871;-77
2023/08/28 06:28:33;;;;;;;;;10.60;10.60;;;;;27.72;29.99;98378.88;4986327;28;8859;-79
2023/08/28 06:31:03;;;;;;;;;10.20;10.20;;;;;27.84;29.93;98365.88;5067154;28;8859;-76
2023/08/28 06:33:32;;;;;;;;;10.00;9.60;;;;;27.89;29.72;98371.59;5067015;28;9605;-79
2023/08/28 06:36:00;;;;;;;;;2.80;2.20;;;;;27.97;29.64;98358.06;5017836;28;8910;-78
2023/08/28 06:38:29;;;;;;;;;9.00;9.00;;;;;27.92;29.55;98357.75;5066423;28;8947;-77
2023/08/28 06:41:00;;;;;;;;;9.20;8.40;;;;;28.01;29.52;98362.09;5066666;28;8867;-77
2023/08/28 06:43:30;;;;;;;;;10.00;9.20;;;;;28.10;29.31;98365.63;5034650;28;8878;-78
2023/08/28 06:46:00;;;;;;;;;10.00;10.00;;;;;28.16;29.58;98366.84;5066941;28;9683;-78
2023/08/28 06:48:29;;;;;;;;;9.00;8.20;;;;;28.21;29.34;98372.53;5109666;28;8848;-80
2023/08/28 06:50:58;;;;;;;;;12.40;11.40;;;;;28.25;29.34;98373.03;5109453;28;8859;-77
2023/08/28 06:53:27;;;;;;;;;11.00;11.00;;;;;28.21;29.34;98364.44;5109589;28;8859;-76
2023/08/28 06:55:56;;;;;;;;;10.80;10.80;;;;;28.29;29.37;98364.41;5057780;28;9586;-82
2023/08/28 06:58:24;;;;;;;;;11.20;9.80;;;;;28.37;28.86;98360.84;5098470;28;8844;-75
2023/08/28 07:00:53;;;;;;;;;9.60;9.00;;;;;28.38;29.04;98368.78;5102313;28;8839;-79
2023/08/28 07:03:23;;;;;;;;;10.20;9.40;;;;;28.37;28.80;98371.66;5095680;28;9706;-77
2023/08/28 07:05:52;;;;;;;;;11.00;10.40;;;;;28.51;28.55;98372.75;5071510;28;8926;-79
2023/08/28 07:08:25;;;;;;;;;10.60;9.60;;;;;28.54;28.50;98377.81;5089089;28;8830;-78
2023/08/28 07:10:53;;;;;;;;;12.40;10.80;;;;;28.60;28.48;98367.13;5089116;28;8858;-78
2023/08/28 07:13:23;;;;;;;;;10.80;9.80;;;;;28.59;28.57;98370.84;5089940;28;8930;-78
2023/08/28 07:15:55;;;;;;;;;12.00;9.60;;;;;28.70;28.63;98364.22;5089629;28;8853;-78
2023/08/28 07:18:26;;;;;;;;;11.80;11.60;;;;;28.63;28.67;98360.53;5084077;28;8889;-78
2023/08/28 07:20:56;;;;;;;;;9.40;9.00;;;;;28.70;28.68;98357.97;5049853;28;8858;-78
2023/08/28 07:23:25;;;;;;;;;10.40;10.40;;;;;28.82;29.03;98370.09;5064605;28;8962;-80
2023/08/28 07:26:19;;;;;;;;;12.60;12.40;;;;;28.98;28.35;98364.53;5088671;28;8839;-79
2023/08/28 07:28:48;;;;;;;;;12.40;12.40;;;;;29.11;28.64;98372.06;5088806;28;8844;-81
2023/08/28 07:31:17;;;;;;;;;9.00;9.00;;;;;29.14;28.21;98363.59;5088627;28;8843;-79
2023/08/28 07:33:47;;;;;;;;;12.00;11.80;;;;;29.23;28.35;98372.50;5074010;28;8830;-79
2023/08/28 07:36:21;;;;;;;;;10.40;10.40;;;;;29.43;27.98;98374.72;5068276;28;8890;-79
2023/08/28 07:38:53;;;;;;;;;12.80;12.00;;;;;29.41;28.02;98372.22;5076160;28;8882;-79
2023/08/28 07:41:21;;;;;;;;;12.20;12.20;;;;;29.50;28.39;98376.53;5068613;28;8862;-77
2023/08/28 07:43:50;;;;;;;;;10.80;10.80;;;;;29.60;28.20;98378.13;5068438;28;8838;-78
2023/08/28 07:46:19;;;;;;;;;11.60;11.60;;;;;29.76;28.34;98378.00;5068477;28;9655;-78
2023/08/28 07:48:49;;;;;;;;;9.60;9.60;;;;;29.77;28.38;98363.44;5068619;28;8835;-81
2023/08/28 07:51:18;;;;;;;;;9.40;9.40;;;;;29.84;28.16;98367.09;5068469;28;8870;-80
2023/08/28 07:53:47;;;;;;;;;11.00;11.00;;;;;29.92;28.44;98371.56;5071927;28;9517;-76
2023/08/28 07:56:15;;;;;;;;;10.60;10.60;;;;;30.01;27.91;98373.16;5080154;28;9620;-77
2023/08/28 07:58:45;;;;;;;;;10.75;10.25;;;;;30.06;28.11;98375.31;5077611;28;8834;-79
2023/08/28 08:01:14;;;;;;;;;13.40;11.20;;;;;30.08;27.98;98367.81;5069012;28;8843;-78
2023/08/28 08:03:43;;;;;;;;;14.60;12.60;;;;;30.13;27.96;98373.53;5068744;28;8874;-77
2023/08/28 08:06:13;;;;;;;;;12.40;12.40;;;;;30.06;27.75;98372.59;5068310;28;9757;-79
2023/08/28 08:08:43;;;;;;;;;16.00;15.25;;;;;30.10;27.76;98369.31;5068099;28;8873;-79
2023/08/28 08:11:12;;;;;;;;;12.20;12.20;;;;;30.20;28.07;98370.94;5067245;28;9013;-78
2023/08/28 08:13:40;;;;;;;;;13.00;13.00;;;;;30.25;27.42;98377.47;5068425;28;8846;-77
2023/08/28 08:16:09;;;;;;;;;14.00;13.75;;;;;30.30;28.00;98363.38;5068518;28;8854;-79
2023/08/28 08:18:40;;;;;;;;;13.00;11.25;;;;;30.33;27.98;98361.13;5077042;28;8841;-76
2023/08/28 08:21:08;;;;;;;;;11.25;11.25;;;;;30.41;27.84;98367.44;5088775;28;8837;-76
2023/08/28 08:23:39;;;;;;;;;13.50;13.00;;;;;30.44;27.54;98359.78;5036773;28;8892;-79
2023/08/28 08:26:08;;;;;;;;;13.25;13.00;;;;;30.57;27.38;98364.53;5088721;28;8830;-76
2023/08/28 08:28:38;;;;;;;;;12.25;12.25;;;;;30.64;27.48;98370.03;5088489;28;8868;-76
2023/08/28 08:31:07;;;;;;;;;17.75;14.00;;;;;30.66;27.53;98352.53;5088277;28;8984;-76
2023/08/28 08:33:38;;;;;;;;;11.75;11.75;;;;;30.77;27.43;98353.09;5092084;28;8826;-78
2023/08/28 08:36:07;;;;;;;;;11.75;11.75;;;;;30.76;26.77;98346.81;5057486;28;8849;-77
2023/08/28 08:38:36;;;;;;;;;12.00;12.00;;;;;30.82;26.75;98350.63;5092428;28;8880;-78
2023/08/28 08:41:09;;;;;;;;;13.50;13.50;;;;;30.90;26.82;98335.09;5091927;28;8830;-77
2023/08/28 08:43:38;;;;;;;;;12.50;12.00;;;;;30.97;26.73;98343.28;5091703;28;8850;-79
2023/08/28 08:46:08;;;;;;;;;12.60;12.20;;;;;31.04;26.69;98346.91;5092014;28;8873;-77
2023/08/28 08:48:38;;;;;;;;;11.75;11.50;;;;;31.07;26.11;98337.53;5092345;28;8846;-78
2023/08/28 08:51:08;;;;;;;;;10.50;10.50;;;;;31.08;26.42;98340.03;5095596;28;8870;-76
2023/08/28 08:53:44;;;;;;;;;13.50;13.00;;;;;31.09;26.38;98338.19;5052084;28;8861;-79
2023/08/28 08:56:18;;;;;;;;;13.80;10.60;;;;;31.06;26.68;98333.97;5100447;28;8850;-76
2023/08/28 08:58:48;;;;;;;;;14.25;14.25;;;;;31.26;26.37;98341.50;5082711;28;8855;-78
2023/08/28 09:01:18;;;;;;;;;13.50;12.00;;;;;31.25;26.11;98334.38;5078998;28;8858;-77
2023/08/28 09:03:48;;;;;;;;;13.25;13.25;;;;;31.27;26.10;98340.47;5073326;28;8854;-76
2023/08/28 09:06:17;;;;;;;;;12.25;12.25;;;;;31.35;26.56;98340.31;5091424;28;8854;-78
2023/08/28 09:08:47;;;;;;;;;12.50;11.00;;;;;31.42;26.22;98333.06;5091156;28;9500;-78
2023/08/28 09:11:17;;;;;;;;;14.00;14.00;;;;;31.40;25.72;98332.41;5072949;28;8850;-77
2023/08/28 09:13:46;;;;;;;;;11.50;10.25;;;;;31.48;26.27;98329.53;5091707;28;8888;-78
2023/08/28 09:16:14;;;;;;;;;12.50;11.75;;;;;31.59;25.87;98320.03;5073501;28;8876;-77
2023/08/28 09:18:44;;;;;;;;;13.50;13.50;;;;;31.57;25.58;98316.66;5038898;28;8822;-76
2023/08/28 09:21:14;;;;;;;;;14.25;12.00;;;;;31.54;26.02;98310.78;5091257;28;8866;-76
2023/08/28 09:23:46;;;;;;;;;12.50;12.50;;;;;31.61;25.67;98307.06;5090780;28;8854;-78
2023/08/28 09:26:21;;;;;;;;;15.25;12.00;;;;;31.72;25.49;98311.16;5038673;28;8846;-77
2023/08/28 09:29:00;;;;;;;;;12.25;12.25;;;;;31.86;25.56;98312.94;5091133;28;8907;-80
2023/08/28 09:31:30;;;;;;;;;11.00;10.00;;;;;31.63;25.79;98310.44;5090885;28;8858;-76
2023/08/28 09:33:59;;;;;;;;;13.75;13.75;;;;;31.60;26.14;98297.28;5090765;28;9050;-78
2023/08/28 09:36:37;;;;;;;;;16.50;13.75;;;;;31.68;25.46;98294.41;5089731;28;8870;-78
2023/08/28 09:39:11;;;;;;;;;13.00;13.00;;;;;31.73;25.78;98287.53;5090970;28;8857;-77
2023/08/28 09:41:43;;;;;;;;;14.25;13.25;;;;;31.75;25.86;98280.88;5091203;28;8880;-75
2023/08/28 09:44:12;;;;;;;;;11.25;11.25;;;;;31.75;26.04;98274.59;5089281;28;8830;-79
2023/08/28 09:46:43;;;;;;;;;12.25;12.00;;;;;31.92;25.41;98280.53;5091570;28;8959;-77
2023/08/28 09:49:14;;;;;;;;;12.25;12.25;;;;;32.13;25.14;98285.88;5042780;28;8853;-76
2023/08/28 09:51:44;;;;;;;;;15.75;10.75;;;;;32.21;25.42;98279.44;5099732;28;8997;-76
2023/08/28 09:54:14;;;;;;;;;11.25;11.25;;;;;32.35;25.20;98280.31;5096144;28;8826;-78
2023/08/28 09:56:45;;;;;;;;;13.75;12.25;;;;;32.25;25.13;98272.56;5091518;28;8869;-79
2023/08/28 09:59:15;;;;;;;;;16.75;14.75;;;;;32.41;25.12;98268.63;5090603;28;8861;-78
2023/08/28 10:01:45;;;;;;;;;11.75;11.25;;;;;32.31;25.49;98266.28;5090823;28;8885;-77
2023/08/28 10:04:15;;;;;;;;;12.00;12.00;;;;;32.38;25.33;98256.28;5072525;28;8830;-76
2023/08/28 10:06:49;;;;;;;;;12.75;12.75;;;;;32.51;25.04;98251.94;5090519;28;8854;-76
2023/08/28 10:09:22;;;;;;;;;13.50;12.50;;;;;32.60;25.58;98242.50;5089202;28;8830;-77
2023/08/28 10:11:54;;;;;;;;;13.75;13.00;;;;;32.59;25.63;98236.22;5071902;28;8942;-80
2023/08/28 10:14:28;;;;;;;;;13.50;12.00;;;;;32.70;25.43;98236.72;5090854;28;8861;-76
2023/08/28 10:17:04;;;;;;;;;14.75;13.75;;;;;32.88;25.39;98228.75;5090691;28;8883;-76
2023/08/28 10:19:39;;;;;;;;;12.25;12.00;;;;;32.89;25.13;98230.44;5090188;28;8845;-79
2023/08/28 10:22:09;;;;;;;;;12.75;12.75;;;;;32.89;25.25;98229.59;5089858;28;8845;-77
2023/08/28 10:24:42;;;;;;;;;12.00;12.00;;;;;32.97;25.10;98230.22;5090283;28;8841;-76
2023/08/28 10:27:14;;;;;;;;;12.25;12.25;;;;;32.94;25.36;98224.34;5090055;28;8858;-78
2023/08/28 10:29:46;;;;;;;;;12.25;11.75;;;;;32.87;24.80;98218.91;5089960;28;8961;-75
2023/08/28 10:32:15;;;;;;;;;14.00;13.50;;;;;32.94;24.86;98217.03;5089998;28;8854;-78
2023/08/28 10:34:45;;;;;;;;;14.50;14.50;;;;;33.11;24.77;98213.91;5089557;28;8883;-79
2023/08/28 10:37:14;;;;;;;;;14.25;14.25;;;;;33.08;24.90;98211.63;5089326;28;8860;-78
2023/08/28 10:39:58;;;;;;;;;13.50;13.50;;;;;33.26;24.87;98206.31;5089537;28;8857;-77
2023/08/28 10:42:30;;;;;;;;;14.50;14.50;;;;;33.32;24.39;98196.47;5089588;28;9641;-76
2023/08/28 10:44:59;;;;;;;;;12.50;12.50;;;;;33.30;24.55;98201.28;5090080;28;8830;-78
2023/08/28 10:47:30;;;;;;;;;13.00;13.00;;;;;33.30;24.35;98201.28;5090690;28;8953;-77
2023/08/28 10:50:00;;;;;;;;;13.75;13.00;;;;;33.46;24.10;98195.41;5094275;28;8858;-77
2023/08/28 10:52:29;;;;;;;;;15.50;15.25;;;;;33.48;24.29;98196.03;5091222;28;8834;-80
2023/08/28 10:55:03;;;;;;;;;13.75;13.75;;;;;33.54;24.17;98186.19;5089700;28;9637;-80
2023/08/28 10:57:39;;;;;;;;;12.75;12.75;;;;;33.67;23.99;98185.31;5089518;28;8870;-76
2023/08/28 11:00:15;;;;;;;;;15.75;14.75;;;;;33.67;23.47;98191.59;5089128;28;8869;-79
2023/08/28 11:03:07;;;;;;;;;11.50;11.25;;;;;33.67;23.47;98188.03;5088439;28;8926;-78
2023/08/28 11:05:39;;;;;;;;;16.00;15.00;;;;;33.80;23.86;98194.25;5027441;28;8880;-79
2023/08/28 11:08:09;;;;;;;;;14.00;13.00;;;;;33.79;23.75;98183.56;5095727;28;8873;-76
2023/08/28 11:10:41;;;;;;;;;12.50;12.50;;;;;33.96;23.27;98179.31;5093951;28;8838;-78
2023/08/28 11:13:21;;;;;;;;;13.75;12.25;;;;;34.16;23.42;98179.22;5091197;28;8849;-77
2023/08/28 11:15:51;;;;;;;;;12.75;12.75;;;;;34.21;22.54;98175.84;5089609;28;8849;-76
2023/08/28 11:18:26;;;;;;;;;12.25;12.25;;;;;34.22;23.05;98179.41;5070700;28;8838;-78
2023/08/28 11:20:56;;;;;;;;;13.75;13.75;;;;;34.25;22.78;98182.53;5089197;28;8895;-78
2023/08/28 11:23:33;;;;;;;;;12.00;12.00;;;;;34.43;22.74;98184.50;5069724;28;8865;-76
2023/08/28 11:26:04;;;;;;;;;14.25;13.25;;;;;34.41;22.28;98180.31;5089184;28;8942;-77
2023/08/28 11:28:44;;;;;;;;;15.75;14.25;;;;;34.53;22.86;98182.16;5089209;28;8880;-77
2023/08/28 11:31:15;;;;;;;;;13.25;13.25;;;;;34.63;22.16;98178.94;5089071;28;8849;-78
2023/08/28 11:33:44;;;;;;;;;13.00;12.50;;;;;34.78;21.86;98178.59;5088686;28;8956;-76
2023/08/28 11:36:17;;;;;;;;;11.50;11.50;;;;;34.81;22.30;98178.13;5088876;28;8846;-78
2023/08/28 11:38:47;;;;;;;;;14.00;13.25;;;;;34.86;22.00;98186.50;5036446;28;8845;-79
2023/08/28 11:41:17;;;;;;;;;16.00;14.25;;;;;34.89;21.67;98177.03;5088697;28;8862;-78